MDPC

Punta Cana International Airport

Punta Cana, Dominican Republic
TAF MDPC 210400Z 2106/2206 07008KT 8000 TSRA FEW014CB BKN016 PROB30 2108/2116 9999 SCT018
Issued Valid From Valid To
Apr-21 @ 04:00 UTC
(6 hours ago)
Apr-21 @ 06:00 UTC
(4 hours ago)
Apr-22 @ 06:00 UTC
(in 20 hours)
Apr-21 @ 06:00 to Apr-22 @ 06:00
TAF MDPC 210400Z 2106/2206 07008KT 8000 TSRA FEW014CB BKN016
Wind Visibility Clouds Conditions
70° at 8 knots 7,998 meters
  • Few at 1,400' AGL
  • Broken at 1,600' AGL
  • Thunderstorm
  • Rain
Probable  (Probability 30%) Apr-21 @ 08:00 to Apr-21 @ 16:00
PROB30 2108/2116 9999 SCT018
Visibility Clouds
10,000+ meters
  • Scattered at 1,800' AGL
TAF MDPC 210400Z 2106/2206 07008KT 8000 TSRA FEW014CB BKN016 PROB30 2108/2116 9999 SCT018
Issued Apr-21 @ 04:00 UTC
(6 hours ago)
Valid From Apr-21 @ 06:00 UTC
(4 hours ago)
Valid To Apr-22 @ 06:00 UTC
(in 20 hours)
Apr-21 @ 06:00 - Apr-22 @ 06:00
Wind Visibility
70° at 8 knots 7,998 meters
Clouds
  • Few at 1,400' AGL
  • Broken at 1,600' AGL
Conditions
  • Thunderstorm
  • Rain
Probability 30% Probable Apr-21 @ 08:00 - Apr-21 @ 16:00
Clouds
  • Scattered at 1,800' AGL